createdAt,value
2023-02-01T00:00:57.761Z,100901.84
2023-02-01T00:03:24.595Z,100898.38
2023-02-01T00:05:59.378Z,100894.00
2023-02-01T00:08:26.481Z,100894.00
2023-02-01T00:11:06.320Z,100899.34
2023-02-01T00:13:35.510Z,100902.00
2023-02-01T00:16:24.183Z,100893.19
2023-02-01T00:18:53.386Z,100880.91
2023-02-01T00:21:21.648Z,100893.22
2023-02-01T00:23:48.909Z,100880.09
2023-02-01T00:26:26.107Z,100876.59
2023-02-01T00:28:52.928Z,100881.84
2023-02-01T00:31:19.839Z,100874.88
2023-02-01T00:33:49.279Z,100875.75
2023-02-01T00:36:16.682Z,100881.03
2023-02-01T00:38:43.470Z,100873.16
2023-02-01T00:41:16.467Z,100875.81
2023-02-01T00:43:44.188Z,100882.84
2023-02-01T00:46:13.203Z,100877.56
2023-02-01T00:48:40.086Z,100872.28
2023-02-01T00:51:14.194Z,100878.50
2023-02-01T00:53:41.113Z,100871.41
2023-02-01T00:56:09.116Z,100865.22
2023-02-01T00:58:36.136Z,100868.78
2023-02-01T01:01:10.746Z,100862.63
2023-02-01T01:03:41.619Z,100871.41
2023-02-01T01:06:15.199Z,100861.75
2023-02-01T01:08:43.293Z,100860.00
2023-02-01T01:11:14.651Z,100849.44
2023-02-01T01:13:42.113Z,100864.38
2023-02-01T01:16:10.324Z,100879.31
2023-02-01T01:18:37.533Z,100874.06
2023-02-01T01:21:09.232Z,100871.47
2023-02-01T01:23:36.856Z,100876.75
2023-02-01T01:26:15.028Z,100875.94
2023-02-01T01:28:42.088Z,100866.25
2023-02-01T01:31:14.027Z,100853.97
2023-02-01T01:33:40.940Z,100860.16
2023-02-01T01:36:12.022Z,100861.03
2023-02-01T01:38:42.664Z,100854.91
2023-02-01T01:41:14.807Z,100857.53
2023-02-01T01:44:03.580Z,100861.09
2023-02-01T01:46:36.843Z,100857.56
2023-02-01T01:49:23.242Z,100854.91
2023-02-01T01:52:00.226Z,100845.22
2023-02-01T01:54:30.561Z,100847.84
2023-02-01T01:57:05.852Z,100844.34
2023-02-01T01:59:37.094Z,100847.00
2023-02-01T02:02:04.593Z,100845.25
2023-02-01T02:04:33.482Z,100845.28
2023-02-01T02:07:09.456Z,100836.47
2023-02-01T02:09:36.290Z,100844.38
2023-02-01T02:12:03.136Z,100840.00
2023-02-01T02:14:30.736Z,100841.75
2023-02-01T02:17:27.985Z,100837.38
2023-02-01T02:20:32.706Z,100835.63
2023-02-01T02:23:30.362Z,100837.38
2023-02-01T02:26:27.036Z,100830.31
2023-02-01T02:29:41.081Z,100825.91
2023-02-01T02:32:33.327Z,100820.63
2023-02-01T02:35:35.468Z,100809.19
2023-02-01T02:38:30.653Z,100811.84
2023-02-01T02:41:39.703Z,100795.09
2023-02-01T02:45:01.530Z,100801.28
2023-02-01T02:47:44.638Z,100805.66
2023-02-01T02:50:44.223Z,100797.75
2023-02-01T02:53:39.183Z,100800.38
2023-02-01T02:56:26.922Z,100787.19
2023-02-01T02:59:13.411Z,100781.91
2023-02-01T03:02:00.745Z,100784.59
2023-02-01T03:04:27.573Z,100774.00
2023-02-01T03:06:55.418Z,100773.19
2023-02-01T03:09:33.070Z,100768.81
2023-02-01T03:12:25.855Z,100768.84
2023-02-01T03:15:01.134Z,100758.28
2023-02-01T03:17:36.716Z,100765.38
2023-02-01T03:20:06.291Z,100750.41
2023-02-01T03:22:35.006Z,100742.53
2023-02-01T03:25:24.131Z,100741.66
2023-02-01T03:28:01.173Z,100744.34
2023-02-01T03:30:33.057Z,100738.19
2023-02-01T03:33:04.139Z,100739.94
2023-02-01T03:36:00.269Z,100726.78
2023-02-01T03:38:30.655Z,100732.03
2023-02-01T03:41:26.203Z,100734.72
2023-02-01T03:44:16.496Z,100729.41
2023-02-01T03:46:53.928Z,100724.13
2023-02-01T03:49:59.218Z,100722.38
2023-02-01T03:52:51.801Z,100710.06
2023-02-01T03:55:21.924Z,100710.97
2023-02-01T03:58:16.813Z,100710.94
2023-02-01T04:00:52.423Z,100702.09
2023-02-01T04:03:19.239Z,100698.53
2023-02-01T04:05:46.043Z,100688.00
2023-02-01T04:08:12.820Z,100695.03
2023-02-01T04:10:39.595Z,100698.59
2023-02-01T04:13:07.490Z,100679.25
2023-02-01T04:15:35.585Z,100685.44
2023-02-01T04:18:02.870Z,100690.72
2023-02-01T04:20:29.707Z,100683.66
2023-02-01T04:22:56.515Z,100685.44
2023-02-01T04:25:23.379Z,100681.97
2023-02-01T04:27:50.158Z,100675.81
2023-02-01T04:30:17.633Z,100678.44
2023-02-01T04:32:44.461Z,100666.13
2023-02-01T04:35:12.561Z,100664.38
2023-02-01T04:37:39.348Z,100665.25
2023-02-01T04:40:07.193Z,100659.13
2023-02-01T04:42:33.987Z,100654.72
2023-02-01T04:45:00.765Z,100649.44
2023-02-01T04:47:27.537Z,100647.69
2023-02-01T04:49:54.301Z,100640.66
2023-02-01T04:52:21.067Z,100641.53
2023-02-01T04:54:47.814Z,100627.44
2023-02-01T04:57:15.803Z,100630.94
2023-02-01T04:59:42.643Z,100617.72
2023-02-01T05:02:09.433Z,100629.13
2023-02-01T05:04:36.288Z,100618.56
2023-02-01T05:07:03.166Z,100621.16
2023-02-01T05:09:29.921Z,100623.78
2023-02-01T05:12:15.001Z,100630.78
2023-02-01T05:14:41.746Z,100630.75
2023-02-01T05:17:08.503Z,100627.22
2023-02-01T05:19:35.289Z,100621.00
2023-02-01T05:22:02.062Z,100623.59
2023-02-01T05:24:28.878Z,100631.44
2023-02-01T05:26:55.695Z,100620.00
2023-02-01T05:29:22.484Z,100612.94
2023-02-01T05:31:49.575Z,100621.72
2023-02-01T05:34:17.089Z,100620.81
2023-02-01T05:36:44.292Z,100611.97
2023-02-01T05:39:11.268Z,100617.19
2023-02-01T05:41:38.523Z,100622.44
2023-02-01T05:44:08.089Z,100612.78
2023-02-01T05:46:36.339Z,100611.88
2023-02-01T05:49:04.115Z,100609.22
2023-02-01T05:51:31.018Z,100610.97
2023-02-01T05:53:57.892Z,100582.88
2023-02-01T05:56:24.676Z,100607.47
2023-02-01T05:58:51.447Z,100594.28
2023-02-01T06:01:18.215Z,100599.53
2023-02-01T06:03:45.013Z,100594.28
2023-02-01T06:06:11.841Z,100581.97
2023-02-01T06:08:41.108Z,100570.59
2023-02-01T06:11:08.173Z,100579.34
2023-02-01T06:13:35.444Z,100587.25
2023-02-01T06:16:04.037Z,100585.50
2023-02-01T06:18:31.540Z,100571.44
2023-02-01T06:21:01.537Z,100567.94
2023-02-01T06:23:30.484Z,100580.22
2023-02-01T06:26:04.148Z,100567.97
2023-02-01T06:28:32.467Z,100560.88
2023-02-01T06:30:59.544Z,100571.44
2023-02-01T06:33:26.837Z,100566.16
2023-02-01T06:36:01.749Z,100553.88
2023-02-01T06:38:28.886Z,100560.00
2023-02-01T06:40:57.613Z,100560.00
2023-02-01T06:43:26.232Z,100576.69
2023-02-01T06:45:53.527Z,100556.47
2023-02-01T06:48:20.374Z,100563.47
2023-02-01T06:50:47.138Z,100561.75
2023-02-01T06:53:13.967Z,100565.25
2023-02-01T06:55:40.717Z,100559.97
2023-02-01T06:58:07.509Z,100576.63
2023-02-01T07:00:34.379Z,100592.47
2023-02-01T07:03:01.967Z,100604.75
2023-02-01T07:05:28.756Z,100602.09
2023-02-01T07:07:55.546Z,100592.44
2023-02-01T07:10:22.563Z,100600.38
2023-02-01T07:12:49.584Z,100595.13
2023-02-01T07:15:16.428Z,100608.28
2023-02-01T07:17:43.476Z,100596.88
2023-02-01T07:20:11.008Z,100604.78
2023-02-01T07:22:37.991Z,100594.28
2023-02-01T07:25:06.649Z,100599.53
2023-02-01T07:27:36.104Z,100606.59
2023-02-01T07:30:07.502Z,100611.88
2023-02-01T07:32:34.478Z,100603.97
2023-02-01T07:35:01.320Z,100597.84
2023-02-01T07:37:28.063Z,100611.03
2023-02-01T07:39:54.827Z,100606.69
2023-02-01T07:42:21.597Z,100601.41
2023-02-01T07:44:48.394Z,100597.88
2023-02-01T07:47:15.146Z,100626.03
2023-02-01T07:49:41.888Z,100632.16
2023-02-01T07:52:08.997Z,100622.50
2023-02-01T07:54:37.285Z,100617.22
2023-02-01T07:57:04.087Z,100626.00
2023-02-01T07:59:30.936Z,100616.34
2023-02-01T08:01:57.762Z,100633.91
2023-02-01T08:04:24.557Z,100622.47
2023-02-01T08:06:51.336Z,100615.47
2023-02-01T08:09:18.269Z,100589.09
2023-02-01T08:11:45.023Z,100583.81
2023-02-01T08:14:11.781Z,100567.16
2023-02-01T08:16:40.172Z,100640.97
2023-02-01T08:19:07.003Z,100664.59
2023-02-01T08:21:39.562Z,100660.84
2023-02-01T08:24:08.807Z,100669.31
2023-02-01T08:26:35.804Z,100675.16
2023-02-01T08:29:05.908Z,100680.31
2023-02-01T08:31:32.779Z,100670.56
2023-02-01T08:34:05.047Z,100673.19
2023-02-01T08:36:32.671Z,100675.84
2023-02-01T08:38:59.680Z,100668.88
2023-02-01T08:41:30.387Z,100668.94
2023-02-01T08:43:58.582Z,100650.59
2023-02-01T08:46:26.201Z,100648.03
2023-02-01T08:48:53.413Z,100657.81
2023-02-01T08:51:23.546Z,100649.97
2023-02-01T08:53:50.819Z,100649.16
2023-02-01T08:56:19.552Z,100658.84
2023-02-01T08:58:46.349Z,100649.25
2023-02-01T09:01:16.149Z,100654.56
2023-02-01T09:03:43.454Z,100643.16
2023-02-01T09:06:14.055Z,100643.19
2023-02-01T09:08:44.129Z,100642.38
2023-02-01T09:11:18.834Z,100633.59
2023-02-01T09:13:46.038Z,100647.69
2023-02-01T09:16:13.225Z,100657.41
2023-02-01T09:18:50.468Z,100650.41
2023-02-01T09:21:23.168Z,100655.72
2023-02-01T09:23:52.199Z,100646.16
2023-02-01T09:26:19.809Z,100645.38
2023-02-01T09:28:49.665Z,100655.97
2023-02-01T09:31:16.600Z,100642.00
2023-02-01T09:33:43.453Z,100638.53
2023-02-01T09:36:10.715Z,100638.59
2023-02-01T09:38:41.707Z,100641.28
2023-02-01T09:41:46.729Z,100635.19
2023-02-01T09:44:59.196Z,100645.78
2023-02-01T09:47:27.242Z,100644.09
2023-02-01T09:50:17.789Z,100638.00
2023-02-01T09:52:56.676Z,100650.34
2023-02-01T09:55:42.217Z,100641.56
2023-02-01T09:58:18.716Z,100646.88
2023-02-01T10:00:56.778Z,100630.19
2023-02-01T10:03:30.336Z,100633.72
2023-02-01T10:06:34.465Z,100635.47
2023-02-01T10:09:32.259Z,100641.63
2023-02-01T10:12:48.918Z,100631.97
2023-02-01T10:15:44.766Z,100635.47
2023-02-01T10:18:45.923Z,100652.22
2023-02-01T10:21:49.753Z,100668.09
2023-02-01T10:24:38.550Z,100667.25
2023-02-01T10:27:19.223Z,100654.97
2023-02-01T10:29:53.440Z,100653.28
2023-02-01T10:32:28.688Z,100656.78
2023-02-01T10:35:06.064Z,100648.03
2023-02-01T10:37:34.910Z,100655.13
2023-02-01T10:40:18.167Z,100658.72
2023-02-01T10:42:46.335Z,100646.41
2023-02-01T10:45:20.694Z,100659.63
2023-02-01T10:47:51.509Z,100648.16
2023-02-01T10:50:35.781Z,100646.44
2023-02-01T10:53:30.447Z,100662.28
2023-02-01T10:55:57.669Z,100648.16
2023-02-01T10:58:33.512Z,100642.00
2023-02-01T11:01:09.007Z,100648.16
2023-02-01T11:03:46.059Z,100644.66
2023-02-01T11:06:22.903Z,100632.34
2023-02-01T11:08:56.715Z,100634.09
2023-02-01T11:11:24.424Z,100626.19
2023-02-01T11:14:01.353Z,100618.25
2023-02-01T11:16:36.966Z,100616.50
2023-02-01T11:19:05.115Z,100607.69
2023-02-01T11:21:33.887Z,100610.31
2023-02-01T11:24:06.435Z,100608.56
2023-02-01T11:26:33.921Z,100600.63
2023-02-01T11:29:18.511Z,100590.97
2023-02-01T11:31:46.720Z,100588.38
2023-02-01T11:34:22.182Z,100574.28
2023-02-01T11:36:50.807Z,100575.19
2023-02-01T11:39:32.863Z,100569.06
2023-02-01T11:42:18.309Z,100556.75
2023-02-01T11:44:47.830Z,100551.50
2023-02-01T11:47:30.007Z,100541.81
2023-02-01T11:50:00.607Z,100535.66
2023-02-01T11:52:56.097Z,100528.59
2023-02-01T11:56:03.409Z,100525.06
2023-02-01T11:58:47.678Z,100507.44
2023-02-01T12:01:21.086Z,100526.84
2023-02-01T12:04:17.039Z,100498.66
2023-02-01T12:06:57.671Z,100499.53
2023-02-01T12:09:57.010Z,100503.06
2023-02-01T12:12:45.072Z,100490.72
2023-02-01T12:15:48.261Z,100477.50
2023-02-01T12:18:47.411Z,100466.03
2023-02-01T12:21:44.510Z,100467.78
2023-02-01T12:24:34.206Z,100461.59
2023-02-01T12:27:42.434Z,100447.50
2023-02-01T12:30:37.157Z,100443.09
2023-02-01T12:33:19.585Z,100450.16
2023-02-01T12:36:04.811Z,100432.53
2023-02-01T12:39:24.025Z,100424.56
2023-02-01T12:42:08.828Z,100421.03
2023-02-01T12:44:52.107Z,100418.38
2023-02-01T12:47:32.219Z,100412.22
2023-02-01T12:50:14.847Z,100405.13
2023-02-01T12:52:49.404Z,100396.31
2023-02-01T12:55:24.291Z,100396.28
2023-02-01T12:58:23.428Z,100407.75
2023-02-01T13:01:09.549Z,100389.22
2023-02-01T13:03:57.620Z,100386.59
2023-02-01T13:06:35.705Z,100363.72
2023-02-01T13:09:26.706Z,100368.09
2023-02-01T13:11:59.468Z,100357.56
2023-02-01T13:14:52.839Z,100367.22
2023-02-01T13:17:26.140Z,100383.91
2023-02-01T13:20:18.279Z,100382.13
2023-02-01T13:22:51.395Z,100391.81
2023-02-01T13:25:38.210Z,100403.22
2023-02-01T13:28:20.747Z,100435.75
2023-02-01T13:31:18.270Z,100477.94
2023-02-01T13:34:53.812Z,100499.84
2023-02-01T13:37:51.573Z,100494.50
2023-02-01T13:40:42.955Z,100454.88
2023-02-01T13:43:17.080Z,100453.94
2023-02-01T13:45:47.523Z,100481.97
2023-02-01T13:48:40.522Z,100496.91
2023-02-01T13:51:08.200Z,100478.41
2023-02-01T13:53:38.221Z,100481.00
2023-02-01T13:56:13.697Z,100495.91
2023-02-01T13:58:43.149Z,100484.47
2023-02-01T14:01:22.218Z,100478.31
2023-02-01T14:04:07.991Z,100476.53
2023-02-01T14:06:44.247Z,100483.53
2023-02-01T14:09:13.408Z,100483.50
2023-02-01T14:11:54.372Z,100490.50
2023-02-01T14:14:24.483Z,100484.34
2023-02-01T14:16:53.977Z,100501.00
2023-02-01T14:19:30.050Z,100513.31
2023-02-01T14:22:02.524Z,100510.66
2023-02-01T14:24:35.220Z,100509.75
2023-02-01T14:27:08.597Z,100525.56
2023-02-01T14:29:38.612Z,100534.31
2023-02-01T14:32:17.146Z,100532.53
2023-02-01T14:34:55.492Z,100534.31
2023-02-01T14:37:22.815Z,100529.94
2023-02-01T14:40:14.218Z,100540.47
2023-02-01T14:42:48.503Z,100542.22
2023-02-01T14:45:21.737Z,100556.28
2023-02-01T14:48:20.324Z,100562.38
2023-02-01T14:50:52.551Z,100551.78
2023-02-01T14:53:26.854Z,100555.28
2023-02-01T14:56:05.817Z,100562.22
2023-02-01T14:59:05.038Z,100569.16
2023-02-01T15:01:35.897Z,100575.19
2023-02-01T15:04:19.058Z,100576.84
2023-02-01T15:06:52.453Z,100574.09
2023-02-01T15:09:40.028Z,100579.25
2023-02-01T15:12:25.989Z,100580.94
2023-02-01T15:15:20.702Z,100574.72
2023-02-01T15:17:58.841Z,100581.59
2023-02-01T15:20:29.749Z,100580.66
2023-02-01T15:23:03.457Z,100578.88
2023-02-01T15:25:37.677Z,100580.63
2023-02-01T15:28:06.936Z,100580.59
2023-02-01T15:30:36.391Z,100583.13
2023-02-01T15:33:18.956Z,100590.16
2023-02-01T15:35:50.262Z,100592.78
2023-02-01T15:38:25.850Z,100590.97
2023-02-01T15:41:14.365Z,100591.78
2023-02-01T15:44:33.503Z,100582.94
2023-02-01T15:47:06.982Z,100574.16
2023-02-01T15:49:40.312Z,100567.97
2023-02-01T15:52:38.741Z,100569.69
2023-02-01T15:55:23.547Z,100576.72
2023-02-01T15:57:51.282Z,100560.00
2023-02-01T16:00:34.493Z,100555.63
2023-02-01T16:03:07.178Z,100559.13
2023-02-01T16:05:43.396Z,100557.38
2023-02-01T16:08:44.550Z,100546.81
2023-02-01T16:11:11.253Z,100554.69
2023-02-01T16:13:37.994Z,100566.09
2023-02-01T16:16:08.914Z,100566.09
2023-02-01T16:18:35.818Z,100561.72
2023-02-01T16:21:02.879Z,100575.75
2023-02-01T16:23:31.571Z,100570.53
2023-02-01T16:25:59.275Z,100567.00
2023-02-01T16:28:26.987Z,100578.41
2023-02-01T16:30:53.948Z,100574.06
2023-02-01T16:33:25.484Z,100592.50
2023-02-01T16:35:53.256Z,100608.28
2023-02-01T16:38:23.258Z,100596.91
2023-02-01T16:40:50.841Z,100586.38
2023-02-01T16:43:24.011Z,100587.28
2023-02-01T16:45:54.159Z,100587.28
2023-02-01T16:48:27.956Z,100586.44
2023-02-01T16:51:07.634Z,100589.09
2023-02-01T16:53:48.304Z,100594.38
2023-02-01T16:56:23.848Z,100608.41
2023-02-01T16:58:51.039Z,100604.94
2023-02-01T17:01:19.728Z,100611.09
2023-02-01T17:03:46.813Z,100610.28
2023-02-01T17:06:22.749Z,100623.50
2023-02-01T17:08:53.969Z,100635.88
2023-02-01T17:11:21.611Z,100628.03
2023-02-01T17:13:48.555Z,100623.78
2023-02-01T17:16:26.150Z,100631.75
2023-02-01T17:19:05.919Z,100642.41
2023-02-01T17:21:42.915Z,100635.44
2023-02-01T17:24:15.545Z,100684.63
2023-02-01T17:26:44.423Z,100666.19
2023-02-01T17:29:11.908Z,100680.22
2023-02-01T17:31:45.695Z,100678.50
2023-02-01T17:34:15.568Z,100690.81
2023-02-01T17:36:44.086Z,100683.75
2023-02-01T17:39:11.718Z,100671.44
2023-02-01T17:41:38.558Z,100674.09
2023-02-01T17:44:05.371Z,100681.97
2023-02-01T17:46:32.410Z,100683.69
2023-02-01T17:48:59.419Z,100719.66
2023-02-01T17:51:28.397Z,100702.91
2023-02-01T17:53:55.786Z,100672.13
2023-02-01T17:56:25.343Z,100675.59
2023-02-01T17:58:52.153Z,100666.75
2023-02-01T18:01:24.738Z,100657.94
2023-02-01T18:03:52.020Z,100672.88
2023-02-01T18:06:35.697Z,100666.72
2023-02-01T18:09:04.011Z,100677.19
2023-02-01T18:11:33.327Z,100678.94
2023-02-01T18:14:00.335Z,100669.25
2023-02-01T18:16:33.162Z,100663.09
2023-02-01T18:19:04.889Z,100660.44
2023-02-01T18:21:42.516Z,100673.63
2023-02-01T18:24:16.958Z,100666.59
2023-02-01T18:26:43.773Z,100677.03
2023-02-01T18:29:10.578Z,100667.41
2023-02-01T18:31:46.475Z,100668.28
2023-02-01T18:34:21.057Z,100669.19
2023-02-01T18:36:51.120Z,100660.41
2023-02-01T18:39:18.324Z,100655.16
2023-02-01T18:41:48.511Z,100657.81
2023-02-01T18:44:16.778Z,100643.78
2023-02-01T18:46:43.884Z,100647.34
2023-02-01T18:49:13.795Z,100643.88
2023-02-01T18:51:41.184Z,100643.88
2023-02-01T18:54:10.770Z,100650.91
2023-02-01T18:56:38.087Z,100645.63
2023-02-01T18:59:04.978Z,100646.50
2023-02-01T19:01:31.779Z,100647.38
2023-02-01T19:04:07.327Z,100645.63
2023-02-01T19:06:37.627Z,100655.25
2023-02-01T19:09:04.447Z,100660.50
2023-02-01T19:11:31.230Z,100654.38
2023-02-01T19:13:58.025Z,100672.81
2023-02-01T19:16:24.804Z,100671.91
2023-02-01T19:18:52.780Z,100691.25
2023-02-01T19:21:19.665Z,100686.97
2023-02-01T19:23:46.453Z,100682.66
2023-02-01T19:26:16.304Z,100684.47
2023-02-01T19:28:46.853Z,100680.09
2023-02-01T19:31:13.989Z,100678.31
2023-02-01T19:33:40.875Z,100673.94
2023-02-01T19:36:09.838Z,100683.59
2023-02-01T19:38:37.192Z,100683.53
2023-02-01T19:41:04.026Z,100687.03
2023-02-01T19:43:30.860Z,100680.00
2023-02-01T19:45:57.675Z,100678.22
2023-02-01T19:48:24.741Z,100686.97
2023-02-01T19:50:51.531Z,100680.78
2023-02-01T19:53:19.498Z,100686.03
2023-02-01T19:55:46.713Z,100684.25
2023-02-01T19:58:13.864Z,100682.50
2023-02-01T20:00:39.817Z,100674.63
2023-02-01T20:03:06.717Z,100677.25
2023-02-01T20:05:33.537Z,100691.31
2023-02-01T20:08:00.973Z,100687.78
2023-02-01T20:10:27.957Z,100691.31
2023-02-01T20:12:54.761Z,100700.94
2023-02-01T20:15:24.807Z,100701.00
2023-02-01T20:17:51.914Z,100705.47
2023-02-01T20:20:18.900Z,100702.91
2023-02-01T20:22:45.727Z,100696.81
2023-02-01T20:25:12.571Z,100698.63
2023-02-01T20:27:40.270Z,100713.56
2023-02-01T20:30:07.971Z,100715.28
2023-02-01T20:32:34.758Z,100731.94
2023-02-01T20:35:02.000Z,100726.66
2023-02-01T20:37:28.799Z,100730.19
2023-02-01T20:39:55.579Z,100732.81
2023-02-01T20:42:22.411Z,100740.72
2023-02-01T20:44:49.165Z,100731.88
2023-02-01T20:47:16.052Z,100740.63
2023-02-01T20:49:42.846Z,100725.69
2023-02-01T20:52:09.613Z,100728.28
2023-02-01T20:54:36.370Z,100735.31
2023-02-01T20:57:03.268Z,100728.25
2023-02-01T20:59:30.044Z,100730.03
2023-02-01T21:01:56.827Z,100737.13
2023-02-01T21:04:27.257Z,100744.13
2023-02-01T21:06:58.893Z,100747.69
2023-02-01T21:09:26.872Z,100745.97
2023-02-01T21:11:54.335Z,100755.63
2023-02-01T21:14:21.224Z,100758.31
2023-02-01T21:16:48.915Z,100758.31
2023-02-01T21:19:17.706Z,100755.66
2023-02-01T21:21:44.571Z,100748.59
2023-02-01T21:24:11.403Z,100750.34
2023-02-01T21:26:41.101Z,100752.94
2023-02-01T21:29:14.480Z,100764.38
2023-02-01T21:31:42.683Z,100750.28
2023-02-01T21:34:09.894Z,100745.88
2023-02-01T21:36:36.807Z,100749.38
2023-02-01T21:39:07.350Z,100751.16
2023-02-01T21:41:54.950Z,100750.34
2023-02-01T21:44:22.774Z,100754.75
2023-02-01T21:46:49.993Z,100750.41
2023-02-01T21:49:16.813Z,100754.03
2023-02-01T21:51:43.853Z,100763.72
2023-02-01T21:54:12.100Z,100760.28
2023-02-01T21:56:40.051Z,100762.09
2023-02-01T21:59:09.957Z,100759.53
2023-02-01T22:01:37.560Z,100757.81
2023-02-01T22:04:04.584Z,100760.53
2023-02-01T22:06:45.855Z,100763.22
2023-02-01T22:09:21.114Z,100772.03
2023-02-01T22:11:49.099Z,100771.13
2023-02-01T22:14:16.657Z,100771.13
2023-02-01T22:16:43.500Z,100771.13
2023-02-01T22:19:12.263Z,100765.88
2023-02-01T22:21:42.096Z,100772.03
2023-02-01T22:24:12.107Z,100779.03
2023-02-01T22:26:40.068Z,100771.16
2023-02-01T22:29:09.362Z,100767.69
2023-02-01T22:31:36.571Z,100777.44
2023-02-01T22:34:03.472Z,100776.56
2023-02-01T22:36:30.307Z,100771.28
2023-02-01T22:38:58.375Z,100770.41
2023-02-01T22:41:25.199Z,100767.72
2023-02-01T22:43:52.013Z,100779.09
2023-02-01T22:46:28.028Z,100772.91
2023-02-01T22:48:54.843Z,100772.88
2023-02-01T22:51:25.974Z,100786.94
2023-02-01T22:53:56.933Z,100779.00
2023-02-01T22:56:37.139Z,100786.88
2023-02-01T22:59:07.312Z,100783.34
2023-02-01T23:01:35.075Z,100797.38
2023-02-01T23:04:05.516Z,100792.94
2023-02-01T23:06:34.436Z,100794.72
2023-02-01T23:09:11.303Z,100801.75
2023-02-01T23:11:38.755Z,100800.84
2023-02-01T23:14:06.382Z,100802.63
2023-02-01T23:16:33.210Z,100801.78
2023-02-01T23:19:00.182Z,100809.72
2023-02-01T23:21:27.365Z,100793.06
2023-02-01T23:23:59.339Z,100808.00
2023-02-01T23:26:29.599Z,100810.63
2023-02-01T23:28:57.743Z,100808.94
2023-02-01T23:31:27.700Z,100795.78
2023-02-01T23:33:55.080Z,100799.28
2023-02-01T23:36:23.854Z,100795.78
2023-02-01T23:38:51.188Z,100802.78
2023-02-01T23:41:20.743Z,100800.09
2023-02-01T23:43:59.484Z,100801.78
2023-02-01T23:46:31.471Z,100795.66
2023-02-01T23:48:59.276Z,100806.19
2023-02-01T23:51:27.078Z,100812.34
2023-02-01T23:53:55.298Z,100808.81
2023-02-01T23:56:33.042Z,100808.81
2023-02-01T23:59:01.802Z,100810.56
